sensor_id;sensor_type;location;lat;lon;timestamp;P1;durP1;ratioP1;P2;durP2;ratioP2
3589;SDS011;1809;48.470;9.226;2022-08-30T00:01:19;13.13;;;10.63;;
3589;SDS011;1809;48.470;9.226;2022-08-30T00:03:47;11.47;;;10.07;;
3589;SDS011;1809;48.470;9.226;2022-08-30T00:06:13;13.10;;;10.90;;
3589;SDS011;1809;48.470;9.226;2022-08-30T00:08:40;10.80;;;9.80;;
3589;SDS011;1809;48.470;9.226;2022-08-30T00:11:08;10.60;;;9.57;;
3589;SDS011;1809;48.470;9.226;2022-08-30T00:13:37;11.07;;;9.17;;
3589;SDS011;1809;48.470;9.226;2022-08-30T00:16:03;12.90;;;11.30;;
3589;SDS011;1809;48.470;9.226;2022-08-30T00:18:30;10.90;;;9.90;;
3589;SDS011;1809;48.470;9.226;2022-08-30T00:20:57;13.87;;;10.20;;
3589;SDS011;1809;48.470;9.226;2022-08-30T00:23:22;16.43;;;10.57;;
3589;SDS011;1809;48.470;9.226;2022-08-30T00:25:48;13.40;;;10.37;;
3589;SDS011;1809;48.470;9.226;2022-08-30T00:28:14;13.97;;;10.77;;
3589;SDS011;1809;48.470;9.226;2022-08-30T00:30:40;13.97;;;10.70;;
3589;SDS011;1809;48.470;9.226;2022-08-30T00:33:07;14.07;;;11.27;;
3589;SDS011;1809;48.470;9.226;2022-08-30T00:35:33;13.30;;;11.53;;
3589;SDS011;1809;48.470;9.226;2022-08-30T00:37:59;13.43;;;11.20;;
3589;SDS011;1809;48.470;9.226;2022-08-30T00:40:25;13.23;;;10.33;;
3589;SDS011;1809;48.470;9.226;2022-08-30T00:42:52;12.10;;;10.80;;
3589;SDS011;1809;48.470;9.226;2022-08-30T00:45:22;13.53;;;11.80;;
3589;SDS011;1809;48.470;9.226;2022-08-30T00:47:52;14.33;;;10.97;;
3589;SDS011;1809;48.470;9.226;2022-08-30T00:50:18;11.83;;;10.50;;
3589;SDS011;1809;48.470;9.226;2022-08-30T00:52:47;15.03;;;10.57;;
3589;SDS011;1809;48.470;9.226;2022-08-30T00:55:17;11.60;;;10.50;;
3589;SDS011;1809;48.470;9.226;2022-08-30T00:57:44;11.40;;;10.20;;
3589;SDS011;1809;48.470;9.226;2022-08-30T01:00:12;13.37;;;11.23;;
3589;SDS011;1809;48.470;9.226;2022-08-30T01:02:39;17.63;;;11.40;;
3589;SDS011;1809;48.470;9.226;2022-08-30T01:05:06;13.03;;;10.63;;
3589;SDS011;1809;48.470;9.226;2022-08-30T01:07:34;15.17;;;11.90;;
3589;SDS011;1809;48.470;9.226;2022-08-30T01:10:01;16.67;;;11.53;;
3589;SDS011;1809;48.470;9.226;2022-08-30T01:12:27;12.30;;;11.00;;
3589;SDS011;1809;48.470;9.226;2022-08-30T01:14:54;13.00;;;11.57;;
3589;SDS011;1809;48.470;9.226;2022-08-30T01:17:20;12.20;;;11.00;;
3589;SDS011;1809;48.470;9.226;2022-08-30T01:19:56;13.90;;;11.03;;
3589;SDS011;1809;48.470;9.226;2022-08-30T01:25:05;16.40;;;11.10;;
3589;SDS011;1809;48.470;9.226;2022-08-30T01:27:33;12.07;;;10.87;;
3589;SDS011;1809;48.470;9.226;2022-08-30T01:30:04;17.33;;;12.00;;
3589;SDS011;1809;48.470;9.226;2022-08-30T01:32:31;15.20;;;11.80;;
3589;SDS011;1809;48.470;9.226;2022-08-30T01:35:03;16.00;;;11.70;;
3589;SDS011;1809;48.470;9.226;2022-08-30T01:37:30;12.63;;;11.00;;
3589;SDS011;1809;48.470;9.226;2022-08-30T01:39:57;14.40;;;11.87;;
3589;SDS011;1809;48.470;9.226;2022-08-30T01:42:23;12.53;;;11.10;;
3589;SDS011;1809;48.470;9.226;2022-08-30T01:44:49;15.20;;;11.57;;
3589;SDS011;1809;48.470;9.226;2022-08-30T01:47:15;13.70;;;11.57;;
3589;SDS011;1809;48.470;9.226;2022-08-30T01:49:45;13.20;;;11.67;;
3589;SDS011;1809;48.470;9.226;2022-08-30T01:52:12;14.20;;;10.63;;
3589;SDS011;1809;48.470;9.226;2022-08-30T01:54:38;15.40;;;11.73;;
3589;SDS011;1809;48.470;9.226;2022-08-30T01:57:06;14.80;;;12.33;;
3589;SDS011;1809;48.470;9.226;2022-08-30T01:59:34;13.73;;;12.30;;
3589;SDS011;1809;48.470;9.226;2022-08-30T02:02:01;13.43;;;11.47;;
3589;SDS011;1809;48.470;9.226;2022-08-30T02:04:26;15.13;;;11.57;;
3589;SDS011;1809;48.470;9.226;2022-08-30T02:06:52;13.63;;;12.20;;
3589;SDS011;1809;48.470;9.226;2022-08-30T02:09:18;15.27;;;11.90;;
3589;SDS011;1809;48.470;9.226;2022-08-30T02:11:43;15.53;;;11.47;;
3589;SDS011;1809;48.470;9.226;2022-08-30T02:14:09;13.13;;;11.00;;
3589;SDS011;1809;48.470;9.226;2022-08-30T02:16:35;13.53;;;11.93;;
3589;SDS011;1809;48.470;9.226;2022-08-30T02:19:00;13.17;;;11.80;;
3589;SDS011;1809;48.470;9.226;2022-08-30T02:21:25;15.23;;;12.30;;
3589;SDS011;1809;48.470;9.226;2022-08-30T02:23:54;14.30;;;10.80;;
3589;SDS011;1809;48.470;9.226;2022-08-30T02:26:20;14.73;;;11.83;;
3589;SDS011;1809;48.470;9.226;2022-08-30T02:28:47;17.20;;;12.03;;
3589;SDS011;1809;48.470;9.226;2022-08-30T02:31:12;17.03;;;13.10;;
3589;SDS011;1809;48.470;9.226;2022-08-30T02:33:38;12.83;;;11.43;;
3589;SDS011;1809;48.470;9.226;2022-08-30T02:36:04;13.03;;;11.53;;
3589;SDS011;1809;48.470;9.226;2022-08-30T02:38:30;16.60;;;12.40;;
3589;SDS011;1809;48.470;9.226;2022-08-30T02:40:56;18.13;;;12.13;;
3589;SDS011;1809;48.470;9.226;2022-08-30T02:43:21;17.77;;;12.27;;
3589;SDS011;1809;48.470;9.226;2022-08-30T02:45:47;15.30;;;12.37;;
3589;SDS011;1809;48.470;9.226;2022-08-30T02:48:12;15.10;;;12.23;;
3589;SDS011;1809;48.470;9.226;2022-08-30T02:50:42;13.77;;;12.10;;
3589;SDS011;1809;48.470;9.226;2022-08-30T02:53:10;13.20;;;11.47;;
3589;SDS011;1809;48.470;9.226;2022-08-30T02:55:36;12.70;;;11.30;;
3589;SDS011;1809;48.470;9.226;2022-08-30T02:58:01;20.03;;;11.63;;
3589;SDS011;1809;48.470;9.226;2022-08-30T03:00:27;14.43;;;10.90;;
3589;SDS011;1809;48.470;9.226;2022-08-30T03:02:52;11.10;;;9.97;;
3589;SDS011;1809;48.470;9.226;2022-08-30T03:05:18;11.97;;;10.77;;
3589;SDS011;1809;48.470;9.226;2022-08-30T03:07:43;12.20;;;10.87;;
3589;SDS011;1809;48.470;9.226;2022-08-30T03:10:11;13.20;;;11.47;;
3589;SDS011;1809;48.470;9.226;2022-08-30T03:12:38;12.00;;;10.70;;
3589;SDS011;1809;48.470;9.226;2022-08-30T03:15:06;13.53;;;10.50;;
3589;SDS011;1809;48.470;9.226;2022-08-30T03:17:32;13.03;;;11.47;;
3589;SDS011;1809;48.470;9.226;2022-08-30T03:19:58;12.60;;;11.40;;
3589;SDS011;1809;48.470;9.226;2022-08-30T03:22:26;12.27;;;10.97;;
3589;SDS011;1809;48.470;9.226;2022-08-30T03:24:52;17.57;;;11.43;;
3589;SDS011;1809;48.470;9.226;2022-08-30T03:27:17;15.90;;;11.97;;
3589;SDS011;1809;48.470;9.226;2022-08-30T03:29:42;13.07;;;11.73;;
3589;SDS011;1809;48.470;9.226;2022-08-30T03:32:08;19.70;;;12.43;;
3589;SDS011;1809;48.470;9.226;2022-08-30T03:34:33;16.30;;;11.87;;
3589;SDS011;1809;48.470;9.226;2022-08-30T03:36:58;14.43;;;12.40;;
3589;SDS011;1809;48.470;9.226;2022-08-30T03:39:25;13.73;;;12.27;;
3589;SDS011;1809;48.470;9.226;2022-08-30T03:41:51;15.40;;;12.77;;
3589;SDS011;1809;48.470;9.226;2022-08-30T03:44:17;19.87;;;13.47;;
3589;SDS011;1809;48.470;9.226;2022-08-30T03:46:44;13.37;;;11.90;;
3589;SDS011;1809;48.470;9.226;2022-08-30T03:49:09;15.20;;;12.60;;
3589;SDS011;1809;48.470;9.226;2022-08-30T03:51:34;19.47;;;12.70;;
3589;SDS011;1809;48.470;9.226;2022-08-30T03:54:00;14.70;;;12.53;;
3589;SDS011;1809;48.470;9.226;2022-08-30T03:56:26;15.93;;;12.87;;
3589;SDS011;1809;48.470;9.226;2022-08-30T03:58:51;13.17;;;11.50;;
3589;SDS011;1809;48.470;9.226;2022-08-30T04:01:16;16.47;;;11.93;;
3589;SDS011;1809;48.470;9.226;2022-08-30T04:03:42;20.67;;;12.87;;
3589;SDS011;1809;48.470;9.226;2022-08-30T04:06:07;15.23;;;12.20;;
3589;SDS011;1809;48.470;9.226;2022-08-30T04:08:33;14.87;;;12.00;;
3589;SDS011;1809;48.470;9.226;2022-08-30T04:10:58;14.27;;;12.77;;
3589;SDS011;1809;48.470;9.226;2022-08-30T04:13:26;16.13;;;13.60;;
3589;SDS011;1809;48.470;9.226;2022-08-30T04:15:53;15.57;;;13.10;;
3589;SDS011;1809;48.470;9.226;2022-08-30T04:18:18;17.47;;;13.17;;
3589;SDS011;1809;48.470;9.226;2022-08-30T04:20:44;20.50;;;13.40;;
3589;SDS011;1809;48.470;9.226;2022-08-30T04:23:09;14.23;;;12.37;;
3589;SDS011;1809;48.470;9.226;2022-08-30T04:25:36;16.70;;;13.30;;
3589;SDS011;1809;48.470;9.226;2022-08-30T04:28:02;15.93;;;12.80;;
3589;SDS011;1809;48.470;9.226;2022-08-30T04:30:29;19.67;;;14.50;;
3589;SDS011;1809;48.470;9.226;2022-08-30T04:32:55;21.23;;;15.23;;
3589;SDS011;1809;48.470;9.226;2022-08-30T04:35:21;21.13;;;14.17;;
3589;SDS011;1809;48.470;9.226;2022-08-30T04:37:46;16.10;;;13.90;;
3589;SDS011;1809;48.470;9.226;2022-08-30T04:40:11;17.83;;;13.13;;
3589;SDS011;1809;48.470;9.226;2022-08-30T04:42:38;16.03;;;13.10;;
3589;SDS011;1809;48.470;9.226;2022-08-30T04:45:04;21.93;;;12.73;;
3589;SDS011;1809;48.470;9.226;2022-08-30T04:47:32;20.10;;;13.50;;
3589;SDS011;1809;48.470;9.226;2022-08-30T04:49:58;17.13;;;12.97;;
3589;SDS011;1809;48.470;9.226;2022-08-30T04:52:23;16.30;;;13.37;;
3589;SDS011;1809;48.470;9.226;2022-08-30T04:54:53;14.43;;;11.80;;
3589;SDS011;1809;48.470;9.226;2022-08-30T04:57:19;21.20;;;14.37;;
3589;SDS011;1809;48.470;9.226;2022-08-30T04:59:45;20.10;;;14.00;;
3589;SDS011;1809;48.470;9.226;2022-08-30T05:02:10;16.97;;;13.33;;
3589;SDS011;1809;48.470;9.226;2022-08-30T05:04:36;19.50;;;12.90;;
3589;SDS011;1809;48.470;9.226;2022-08-30T05:07:22;17.17;;;13.17;;
3589;SDS011;1809;48.470;9.226;2022-08-30T05:09:47;16.50;;;13.00;;
3589;SDS011;1809;48.470;9.226;2022-08-30T05:12:12;19.30;;;13.83;;
3589;SDS011;1809;48.470;9.226;2022-08-30T05:14:38;19.40;;;13.70;;
3589;SDS011;1809;48.470;9.226;2022-08-30T05:17:03;14.63;;;12.83;;
3589;SDS011;1809;48.470;9.226;2022-08-30T05:19:30;18.60;;;12.70;;
3589;SDS011;1809;48.470;9.226;2022-08-30T05:21:57;15.00;;;12.77;;
3589;SDS011;1809;48.470;9.226;2022-08-30T05:24:23;20.40;;;12.97;;
3589;SDS011;1809;48.470;9.226;2022-08-30T05:26:48;19.83;;;13.40;;
3589;SDS011;1809;48.470;9.226;2022-08-30T05:29:14;16.57;;;13.17;;
3589;SDS011;1809;48.470;9.226;2022-08-30T05:31:39;15.97;;;12.33;;
3589;SDS011;1809;48.470;9.226;2022-08-30T05:34:05;16.47;;;13.57;;
3589;SDS011;1809;48.470;9.226;2022-08-30T05:36:32;18.07;;;14.53;;
3589;SDS011;1809;48.470;9.226;2022-08-30T05:38:59;23.13;;;13.93;;
3589;SDS011;1809;48.470;9.226;2022-08-30T05:41:24;18.20;;;14.17;;
3589;SDS011;1809;48.470;9.226;2022-08-30T05:43:54;14.00;;;11.77;;
3589;SDS011;1809;48.470;9.226;2022-08-30T05:46:23;14.23;;;12.80;;
3589;SDS011;1809;48.470;9.226;2022-08-30T05:48:49;13.13;;;11.73;;
3589;SDS011;1809;48.470;9.226;2022-08-30T05:51:17;12.20;;;10.90;;
3589;SDS011;1809;48.470;9.226;2022-08-30T05:53:44;15.50;;;11.40;;
3589;SDS011;1809;48.470;9.226;2022-08-30T05:56:11;15.53;;;11.90;;
3589;SDS011;1809;48.470;9.226;2022-08-30T05:58:41;14.07;;;11.83;;
3589;SDS011;1809;48.470;9.226;2022-08-30T06:01:07;12.97;;;11.70;;
3589;SDS011;1809;48.470;9.226;2022-08-30T06:03:42;15.53;;;9.90;;
3589;SDS011;1809;48.470;9.226;2022-08-30T06:06:08;11.30;;;8.40;;
3589;SDS011;1809;48.470;9.226;2022-08-30T06:08:33;10.93;;;10.03;;
3589;SDS011;1809;48.470;9.226;2022-08-30T06:10:58;10.97;;;9.83;;
3589;SDS011;1809;48.470;9.226;2022-08-30T06:13:24;10.37;;;9.37;;
3589;SDS011;1809;48.470;9.226;2022-08-30T06:15:49;11.10;;;9.93;;
3589;SDS011;1809;48.470;9.226;2022-08-30T06:18:16;11.37;;;10.30;;
3589;SDS011;1809;48.470;9.226;2022-08-30T06:20:42;11.10;;;9.97;;
3589;SDS011;1809;48.470;9.226;2022-08-30T06:23:11;12.87;;;10.13;;
3589;SDS011;1809;48.470;9.226;2022-08-30T06:25:37;12.57;;;10.40;;
3589;SDS011;1809;48.470;9.226;2022-08-30T06:28:03;12.27;;;10.33;;
3589;SDS011;1809;48.470;9.226;2022-08-30T06:30:30;12.20;;;11.00;;
3589;SDS011;1809;48.470;9.226;2022-08-30T06:32:56;11.87;;;10.60;;
3589;SDS011;1809;48.470;9.226;2022-08-30T06:35:22;19.27;;;11.93;;
3589;SDS011;1809;48.470;9.226;2022-08-30T06:37:47;17.07;;;14.70;;
3589;SDS011;1809;48.470;9.226;2022-08-30T06:40:12;12.47;;;11.17;;
3589;SDS011;1809;48.470;9.226;2022-08-30T06:42:40;13.90;;;11.20;;
3589;SDS011;1809;48.470;9.226;2022-08-30T06:45:06;12.33;;;11.23;;
3589;SDS011;1809;48.470;9.226;2022-08-30T06:47:31;15.87;;;11.63;;
3589;SDS011;1809;48.470;9.226;2022-08-30T06:49:57;12.83;;;11.50;;
3589;SDS011;1809;48.470;9.226;2022-08-30T06:52:23;12.77;;;10.57;;
3589;SDS011;1809;48.470;9.226;2022-08-30T06:54:49;13.33;;;10.20;;
3589;SDS011;1809;48.470;9.226;2022-08-30T06:57:14;12.07;;;10.83;;
3589;SDS011;1809;48.470;9.226;2022-08-30T06:59:40;13.60;;;11.60;;
3589;SDS011;1809;48.470;9.226;2022-08-30T07:02:05;13.77;;;9.40;;
3589;SDS011;1809;48.470;9.226;2022-08-30T07:04:31;9.40;;;8.60;;
3589;SDS011;1809;48.470;9.226;2022-08-30T07:06:57;11.53;;;10.30;;
3589;SDS011;1809;48.470;9.226;2022-08-30T07:09:23;14.60;;;10.80;;
3589;SDS011;1809;48.470;9.226;2022-08-30T07:11:49;12.00;;;10.67;;
3589;SDS011;1809;48.470;9.226;2022-08-30T07:14:16;13.70;;;11.63;;
3589;SDS011;1809;48.470;9.226;2022-08-30T07:16:42;15.67;;;12.20;;
3589;SDS011;1809;48.470;9.226;2022-08-30T07:19:08;13.93;;;12.10;;
3589;SDS011;1809;48.470;9.226;2022-08-30T07:21:34;18.50;;;12.60;;
3589;SDS011;1809;48.470;9.226;2022-08-30T07:24:05;16.30;;;13.03;;
3589;SDS011;1809;48.470;9.226;2022-08-30T07:26:32;14.60;;;12.63;;
3589;SDS011;1809;48.470;9.226;2022-08-30T07:28:59;17.80;;;12.90;;
3589;SDS011;1809;48.470;9.226;2022-08-30T07:31:25;16.50;;;14.80;;
3589;SDS011;1809;48.470;9.226;2022-08-30T07:33:51;18.20;;;15.03;;
3589;SDS011;1809;48.470;9.226;2022-08-30T07:36:17;18.83;;;14.57;;
3589;SDS011;1809;48.470;9.226;2022-08-30T07:38:44;20.03;;;14.83;;
3589;SDS011;1809;48.470;9.226;2022-08-30T07:41:14;22.07;;;14.83;;
3589;SDS011;1809;48.470;9.226;2022-08-30T07:43:51;17.37;;;15.53;;
3589;SDS011;1809;48.470;9.226;2022-08-30T07:46:18;18.87;;;15.10;;
3589;SDS011;1809;48.470;9.226;2022-08-30T07:48:44;15.93;;;13.90;;
3589;SDS011;1809;48.470;9.226;2022-08-30T07:51:13;17.70;;;13.57;;
3589;SDS011;1809;48.470;9.226;2022-08-30T07:53:44;19.70;;;12.83;;
3589;SDS011;1809;48.470;9.226;2022-08-30T07:56:10;16.20;;;12.67;;
3589;SDS011;1809;48.470;9.226;2022-08-30T07:58:36;19.17;;;12.67;;
3589;SDS011;1809;48.470;9.226;2022-08-30T08:01:05;12.73;;;11.43;;
3589;SDS011;1809;48.470;9.226;2022-08-30T08:03:32;15.77;;;12.90;;
3589;SDS011;1809;48.470;9.226;2022-08-30T08:06:00;16.67;;;12.13;;
3589;SDS011;1809;48.470;9.226;2022-08-30T08:08:27;17.17;;;12.27;;
3589;SDS011;1809;48.470;9.226;2022-08-30T08:10:52;13.33;;;12.03;;
3589;SDS011;1809;48.470;9.226;2022-08-30T08:13:18;14.13;;;12.27;;
3589;SDS011;1809;48.470;9.226;2022-08-30T08:15:44;14.33;;;12.73;;
3589;SDS011;1809;48.470;9.226;2022-08-30T08:18:09;18.93;;;13.60;;
3589;SDS011;1809;48.470;9.226;2022-08-30T08:20:34;22.43;;;12.60;;
3589;SDS011;1809;48.470;9.226;2022-08-30T08:23:00;21.40;;;11.87;;
3589;SDS011;1809;48.470;9.226;2022-08-30T08:25:26;14.93;;;11.87;;
3589;SDS011;1809;48.470;9.226;2022-08-30T08:27:52;17.40;;;11.97;;
3589;SDS011;1809;48.470;9.226;2022-08-30T08:30:18;22.00;;;11.57;;
3589;SDS011;1809;48.470;9.226;2022-08-30T08:32:45;13.90;;;11.57;;
3589;SDS011;1809;48.470;9.226;2022-08-30T08:35:11;14.53;;;11.70;;
3589;SDS011;1809;48.470;9.226;2022-08-30T08:37:37;12.90;;;11.50;;
3589;SDS011;1809;48.470;9.226;2022-08-30T08:40:04;16.90;;;11.80;;
3589;SDS011;1809;48.470;9.226;2022-08-30T08:45:23;12.20;;;11.00;;
3589;SDS011;1809;48.470;9.226;2022-08-30T08:48:39;15.73;;;9.80;;
3589;SDS011;1809;48.470;9.226;2022-08-30T08:50:56;12.30;;;10.70;;
3589;SDS011;1809;48.470;9.226;2022-08-30T08:53:42;11.37;;;10.17;;
3589;SDS011;1809;48.470;9.226;2022-08-30T08:56:13;10.40;;;9.57;;
3589;SDS011;1809;48.470;9.226;2022-08-30T08:58:41;10.00;;;8.97;;
3589;SDS011;1809;48.470;9.226;2022-08-30T09:01:08;10.97;;;9.90;;
3589;SDS011;1809;48.470;9.226;2022-08-30T09:03:35;11.00;;;9.40;;
3589;SDS011;1809;48.470;9.226;2022-08-30T09:06:03;9.90;;;9.00;;
3589;SDS011;1809;48.470;9.226;2022-08-30T09:08:39;10.60;;;9.60;;
3589;SDS011;1809;48.470;9.226;2022-08-30T09:11:05;9.53;;;8.67;;
3589;SDS011;1809;48.470;9.226;2022-08-30T09:13:40;9.57;;;8.57;;
3589;SDS011;1809;48.470;9.226;2022-08-30T09:16:06;11.93;;;9.70;;
3589;SDS011;1809;48.470;9.226;2022-08-30T09:18:42;9.67;;;8.97;;
3589;SDS011;1809;48.470;9.226;2022-08-30T09:21:10;11.93;;;9.60;;
3589;SDS011;1809;48.470;9.226;2022-08-30T09:23:36;11.53;;;10.27;;
3589;SDS011;1809;48.470;9.226;2022-08-30T09:26:10;9.30;;;8.40;;
3589;SDS011;1809;48.470;9.226;2022-08-30T09:28:46;11.20;;;10.00;;
3589;SDS011;1809;48.470;9.226;2022-08-30T09:31:18;11.47;;;8.87;;
3589;SDS011;1809;48.470;9.226;2022-08-30T09:33:52;10.23;;;8.30;;
3589;SDS011;1809;48.470;9.226;2022-08-30T09:36:33;10.67;;;9.03;;
3589;SDS011;1809;48.470;9.226;2022-08-30T09:39:05;9.70;;;8.03;;
3589;SDS011;1809;48.470;9.226;2022-08-30T09:41:40;9.20;;;8.50;;
3589;SDS011;1809;48.470;9.226;2022-08-30T09:44:18;9.13;;;8.23;;
3589;SDS011;1809;48.470;9.226;2022-08-30T09:46:49;17.23;;;8.80;;
3589;SDS011;1809;48.470;9.226;2022-08-30T09:57:28;10.03;;;8.57;;
3589;SDS011;1809;48.470;9.226;2022-08-30T10:05:13;10.00;;;7.80;;
3589;SDS011;1809;48.470;9.226;2022-08-30T10:07:56;8.70;;;7.83;;
3589;SDS011;1809;48.470;9.226;2022-08-30T10:11:04;15.60;;;8.07;;
3589;SDS011;1809;48.470;9.226;2022-08-30T10:13:41;9.00;;;7.57;;
3589;SDS011;1809;48.470;9.226;2022-08-30T10:19:02;8.27;;;7.47;;
3589;SDS011;1809;48.470;9.226;2022-08-30T10:24:10;10.40;;;7.30;;
3589;SDS011;1809;48.470;9.226;2022-08-30T10:26:53;12.10;;;8.63;;
3589;SDS011;1809;48.470;9.226;2022-08-30T10:31:55;13.77;;;8.47;;
3589;SDS011;1809;48.470;9.226;2022-08-30T10:34:30;9.80;;;7.10;;
3589;SDS011;1809;48.470;9.226;2022-08-30T10:37:12;9.60;;;7.30;;
3589;SDS011;1809;48.470;9.226;2022-08-30T10:39:44;7.30;;;6.70;;
3589;SDS011;1809;48.470;9.226;2022-08-30T10:45:12;8.37;;;6.40;;
3589;SDS011;1809;48.470;9.226;2022-08-30T10:50:33;5.70;;;5.40;;
3589;SDS011;1809;48.470;9.226;2022-08-30T10:56:11;5.73;;;5.00;;
3589;SDS011;1809;48.470;9.226;2022-08-30T10:58:40;6.50;;;5.23;;
3589;SDS011;1809;48.470;9.226;2022-08-30T11:12:24;5.33;;;5.03;;
3589;SDS011;1809;48.470;9.226;2022-08-30T11:15:23;8.30;;;5.97;;
3589;SDS011;1809;48.470;9.226;2022-08-30T11:23:27;6.23;;;5.83;;
3589;SDS011;1809;48.470;9.226;2022-08-30T11:25:59;7.03;;;5.27;;
3589;SDS011;1809;48.470;9.226;2022-08-30T11:31:08;5.67;;;5.27;;
3589;SDS011;1809;48.470;9.226;2022-08-30T11:33:42;5.60;;;5.27;;
3589;SDS011;1809;48.470;9.226;2022-08-30T11:46:47;5.90;;;5.50;;
3589;SDS011;1809;48.470;9.226;2022-08-30T12:05:10;5.33;;;5.03;;
3589;SDS011;1809;48.470;9.226;2022-08-30T12:08:00;7.47;;;5.07;;
3589;SDS011;1809;48.470;9.226;2022-08-30T12:10:44;5.97;;;5.47;;
3589;SDS011;1809;48.470;9.226;2022-08-30T12:16:20;5.70;;;5.27;;
3589;SDS011;1809;48.470;9.226;2022-08-30T12:18:55;5.67;;;5.27;;
3589;SDS011;1809;48.470;9.226;2022-08-30T12:21:32;5.67;;;5.17;;
3589;SDS011;1809;48.470;9.226;2022-08-30T12:26:48;6.30;;;5.70;;
3589;SDS011;1809;48.470;9.226;2022-08-30T12:29:25;6.07;;;5.67;;
3589;SDS011;1809;48.470;9.226;2022-08-30T12:31:54;5.63;;;5.23;;
3589;SDS011;1809;48.470;9.226;2022-08-30T12:34:31;6.33;;;5.93;;
3589;SDS011;1809;48.470;9.226;2022-08-30T12:37:07;6.00;;;5.60;;
3589;SDS011;1809;48.470;9.226;2022-08-30T12:39:43;5.53;;;5.23;;
3589;SDS011;1809;48.470;9.226;2022-08-30T12:42:20;7.17;;;6.57;;
3589;SDS011;1809;48.470;9.226;2022-08-30T12:44:51;6.17;;;5.80;;
3589;SDS011;1809;48.470;9.226;2022-08-30T12:47:21;7.03;;;6.47;;
3589;SDS011;1809;48.470;9.226;2022-08-30T12:49:53;5.10;;;4.80;;
3589;SDS011;1809;48.470;9.226;2022-08-30T12:54:53;5.83;;;5.43;;
3589;SDS011;1809;48.470;9.226;2022-08-30T12:57:40;6.33;;;5.80;;
3589;SDS011;1809;48.470;9.226;2022-08-30T13:00:08;5.43;;;5.07;;
3589;SDS011;1809;48.470;9.226;2022-08-30T13:02:53;6.63;;;6.03;;
3589;SDS011;1809;48.470;9.226;2022-08-30T13:07:52;6.40;;;5.90;;
3589;SDS011;1809;48.470;9.226;2022-08-30T13:10:32;10.03;;;6.77;;
3589;SDS011;1809;48.470;9.226;2022-08-30T13:12:59;5.93;;;5.60;;
3589;SDS011;1809;48.470;9.226;2022-08-30T13:15:27;8.87;;;5.87;;
3589;SDS011;1809;48.470;9.226;2022-08-30T13:18:11;7.57;;;6.97;;
3589;SDS011;1809;48.470;9.226;2022-08-30T13:20:43;7.60;;;6.27;;
3589;SDS011;1809;48.470;9.226;2022-08-30T13:23:10;9.47;;;6.40;;
3589;SDS011;1809;48.470;9.226;2022-08-30T13:25:36;6.23;;;5.83;;
3589;SDS011;1809;48.470;9.226;2022-08-30T13:28:03;7.70;;;6.90;;
3589;SDS011;1809;48.470;9.226;2022-08-30T13:30:30;7.20;;;6.60;;
3589;SDS011;1809;48.470;9.226;2022-08-30T13:32:56;11.00;;;5.70;;
3589;SDS011;1809;48.470;9.226;2022-08-30T13:35:22;6.70;;;6.17;;
3589;SDS011;1809;48.470;9.226;2022-08-30T13:37:48;6.37;;;5.80;;
3589;SDS011;1809;48.470;9.226;2022-08-30T13:40:14;6.43;;;5.73;;
3589;SDS011;1809;48.470;9.226;2022-08-30T13:42:41;6.30;;;5.70;;
3589;SDS011;1809;48.470;9.226;2022-08-30T13:45:07;8.20;;;6.80;;
3589;SDS011;1809;48.470;9.226;2022-08-30T13:47:34;7.53;;;6.80;;
3589;SDS011;1809;48.470;9.226;2022-08-30T13:49:59;7.17;;;6.50;;
3589;SDS011;1809;48.470;9.226;2022-08-30T13:52:25;7.10;;;6.60;;
3589;SDS011;1809;48.470;9.226;2022-08-30T13:54:51;6.50;;;6.00;;
3589;SDS011;1809;48.470;9.226;2022-08-30T13:57:19;6.33;;;5.73;;
3589;SDS011;1809;48.470;9.226;2022-08-30T13:59:46;6.90;;;6.17;;
3589;SDS011;1809;48.470;9.226;2022-08-30T14:02:11;6.97;;;6.43;;
3589;SDS011;1809;48.470;9.226;2022-08-30T14:04:37;6.53;;;6.13;;
3589;SDS011;1809;48.470;9.226;2022-08-30T14:07:03;5.67;;;5.37;;
3589;SDS011;1809;48.470;9.226;2022-08-30T14:09:29;11.33;;;6.00;;
3589;SDS011;1809;48.470;9.226;2022-08-30T14:11:54;5.00;;;4.80;;
3589;SDS011;1809;48.470;9.226;2022-08-30T14:14:19;7.03;;;6.30;;
3589;SDS011;1809;48.470;9.226;2022-08-30T14:16:45;7.23;;;6.50;;
3589;SDS011;1809;48.470;9.226;2022-08-30T14:19:11;6.20;;;5.80;;
3589;SDS011;1809;48.470;9.226;2022-08-30T14:21:39;6.60;;;6.20;;
3589;SDS011;1809;48.470;9.226;2022-08-30T14:24:04;6.20;;;5.57;;
3589;SDS011;1809;48.470;9.226;2022-08-30T14:26:51;6.80;;;6.30;;
3589;SDS011;1809;48.470;9.226;2022-08-30T14:29:18;8.50;;;6.50;;
3589;SDS011;1809;48.470;9.226;2022-08-30T14:31:50;6.40;;;5.97;;
3589;SDS011;1809;48.470;9.226;2022-08-30T14:34:16;11.13;;;6.73;;
3589;SDS011;1809;48.470;9.226;2022-08-30T14:36:42;5.50;;;5.10;;
3589;SDS011;1809;48.470;9.226;2022-08-30T14:39:10;6.03;;;5.63;;
3589;SDS011;1809;48.470;9.226;2022-08-30T14:41:40;6.20;;;5.80;;
3589;SDS011;1809;48.470;9.226;2022-08-30T14:44:09;6.50;;;5.90;;
3589;SDS011;1809;48.470;9.226;2022-08-30T14:46:35;6.80;;;6.40;;
3589;SDS011;1809;48.470;9.226;2022-08-30T14:49:00;6.10;;;5.70;;
3589;SDS011;1809;48.470;9.226;2022-08-30T14:51:25;6.80;;;6.30;;
3589;SDS011;1809;48.470;9.226;2022-08-30T14:53:51;6.37;;;5.77;;
3589;SDS011;1809;48.470;9.226;2022-08-30T14:56:18;7.20;;;6.57;;
3589;SDS011;1809;48.470;9.226;2022-08-30T14:58:48;7.43;;;6.83;;
3589;SDS011;1809;48.470;9.226;2022-08-30T15:01:15;10.33;;;7.03;;
3589;SDS011;1809;48.470;9.226;2022-08-30T15:03:41;6.73;;;6.33;;
3589;SDS011;1809;48.470;9.226;2022-08-30T15:06:07;7.43;;;6.83;;
3589;SDS011;1809;48.470;9.226;2022-08-30T15:08:33;7.17;;;6.33;;
3589;SDS011;1809;48.470;9.226;2022-08-30T15:11:00;7.53;;;6.93;;
3589;SDS011;1809;48.470;9.226;2022-08-30T15:13:30;7.33;;;6.63;;
3589;SDS011;1809;48.470;9.226;2022-08-30T15:15:55;7.73;;;7.13;;
3589;SDS011;1809;48.470;9.226;2022-08-30T15:18:21;7.13;;;6.63;;
3589;SDS011;1809;48.470;9.226;2022-08-30T15:20:48;9.27;;;6.67;;
3589;SDS011;1809;48.470;9.226;2022-08-30T15:23:14;6.10;;;5.60;;
3589;SDS011;1809;48.470;9.226;2022-08-30T15:25:40;7.87;;;7.07;;
3589;SDS011;1809;48.470;9.226;2022-08-30T15:28:05;7.10;;;6.60;;
3589;SDS011;1809;48.470;9.226;2022-08-30T15:30:31;6.27;;;5.87;;
3589;SDS011;1809;48.470;9.226;2022-08-30T15:32:56;6.27;;;5.90;;
3589;SDS011;1809;48.470;9.226;2022-08-30T15:35:21;6.40;;;5.90;;
3589;SDS011;1809;48.470;9.226;2022-08-30T15:37:47;6.83;;;5.97;;
3589;SDS011;1809;48.470;9.226;2022-08-30T15:40:12;7.70;;;7.00;;
3589;SDS011;1809;48.470;9.226;2022-08-30T15:42:37;6.93;;;6.30;;
3589;SDS011;1809;48.470;9.226;2022-08-30T15:45:03;7.20;;;6.70;;
3589;SDS011;1809;48.470;9.226;2022-08-30T15:47:29;6.87;;;6.17;;
3589;SDS011;1809;48.470;9.226;2022-08-30T15:49:55;6.83;;;6.23;;
3589;SDS011;1809;48.470;9.226;2022-08-30T15:52:27;7.03;;;6.53;;
3589;SDS011;1809;48.470;9.226;2022-08-30T15:54:53;9.47;;;6.37;;
3589;SDS011;1809;48.470;9.226;2022-08-30T15:57:18;7.20;;;6.70;;
3589;SDS011;1809;48.470;9.226;2022-08-30T15:59:44;7.10;;;6.50;;
3589;SDS011;1809;48.470;9.226;2022-08-30T16:02:09;6.50;;;6.10;;
3589;SDS011;1809;48.470;9.226;2022-08-30T16:04:35;11.20;;;6.73;;
3589;SDS011;1809;48.470;9.226;2022-08-30T16:07:01;6.40;;;6.10;;
3589;SDS011;1809;48.470;9.226;2022-08-30T16:09:27;7.20;;;6.53;;
3589;SDS011;1809;48.470;9.226;2022-08-30T16:11:52;6.43;;;5.93;;
3589;SDS011;1809;48.470;9.226;2022-08-30T16:14:18;6.40;;;5.87;;
3589;SDS011;1809;48.470;9.226;2022-08-30T16:16:44;6.67;;;6.27;;
3589;SDS011;1809;48.470;9.226;2022-08-30T16:19:10;7.37;;;6.67;;
3589;SDS011;1809;48.470;9.226;2022-08-30T16:21:36;6.07;;;5.70;;
3589;SDS011;1809;48.470;9.226;2022-08-30T16:24:04;7.30;;;6.63;;
3589;SDS011;1809;48.470;9.226;2022-08-30T16:26:32;6.87;;;6.27;;
3589;SDS011;1809;48.470;9.226;2022-08-30T16:28:59;7.97;;;6.47;;
3589;SDS011;1809;48.470;9.226;2022-08-30T16:31:25;5.97;;;5.57;;
3589;SDS011;1809;48.470;9.226;2022-08-30T16:33:53;7.43;;;6.70;;
3589;SDS011;1809;48.470;9.226;2022-08-30T16:36:19;7.33;;;5.40;;